Startpagina
METAR-TAF:

METAR-TAF

Vliegvelden :

Maastricht Aachen Airport

Maastricht Aken, Nederland

breedte: 50-55N, lengte: 005-47E, hoogte: 114 m

Actueel weer

Dit bericht is 17 minuten geleden gemaakt, om 05:25 UTC
Wind 5 kt uit het noordoosten
Temperatuur -3°C
Vochtigheid 93%
Druk 1026 hPa
Zicht 10 km of meer

METAR: EHBK 070525Z AUTO 04005KT 9999 NCD M03/M04 Q1026

Tijdstip: 06:42 (05:42 UTC)

Verwachting

Dit bericht is 28 minuten geleden gemaakt, om 05:14 UTC
Verwachting geldig van 07 om 06 UTC tot 08 om 12 UTC
Wind 5 kt uit het noordnoordoosten
Zicht 10 km of meer
geen wolken onder 1500 m en geen cumulonimbus
Kans 40%
van 07 om 06 UTC tot 07 om 08 UTC
Zicht: 4000 m
Ondiepe mist
Kans 30%
van 08 om 00 UTC tot 08 om 08 UTC
Zicht: 2000 m
Gebroken wolken op 800 ft
nevel

TAF: EHBK 070514Z 0706/0812 03005KT CAVOK PROB40 0706/0708 4000 MIFG PROB30 0800/0808 2000 BR BKN008

Waarnemingen en weersverwachtingen van meer dan 4000 vliegvelden (METAR en TAF).

De beschikbare stations zijn de gele en rode punten op de kaart.

Ga met uw muis naar het station om de naam te zien.

Klik dan om waarnemingen en weersverwachtingen te zien.

kaart wijzigen: klik op de groene knoppen met een zwart kruis om in te zoomen, op de groene knop met een streepje om uit te zoomen of op de groene pijlen voor aangrenzende kaarten.


METAR-TAF: